sensor_id;sensor_type;location;lat;lon;timestamp;temperature;humidity
15707;DHT22;7953;54.302;10.128;2024-01-07T00:02:13;1.00;99.90
15707;DHT22;7953;54.302;10.128;2024-01-07T00:04:41;1.00;99.90
15707;DHT22;7953;54.302;10.128;2024-01-07T00:07:08;1.00;99.90
15707;DHT22;7953;54.302;10.128;2024-01-07T00:09:35;1.00;99.90
15707;DHT22;7953;54.302;10.128;2024-01-07T00:12:02;1.00;99.90
15707;DHT22;7953;54.302;10.128;2024-01-07T00:14:29;0.90;99.90
15707;DHT22;7953;54.302;10.128;2024-01-07T00:16:55;0.90;99.90
15707;DHT22;7953;54.302;10.128;2024-01-07T00:19:22;0.90;99.90
15707;DHT22;7953;54.302;10.128;2024-01-07T00:21:50;0.80;99.90
15707;DHT22;7953;54.302;10.128;2024-01-07T00:24:17;0.80;99.90
15707;DHT22;7953;54.302;10.128;2024-01-07T00:26:44;0.80;99.90
15707;DHT22;7953;54.302;10.128;2024-01-07T00:29:11;0.80;99.90
15707;DHT22;7953;54.302;10.128;2024-01-07T00:31:38;0.80;99.90
15707;DHT22;7953;54.302;10.128;2024-01-07T00:34:04;0.80;99.90
15707;DHT22;7953;54.302;10.128;2024-01-07T00:36:31;0.80;99.90
15707;DHT22;7953;54.302;10.128;2024-01-07T00:38:59;0.80;99.90
15707;DHT22;7953;54.302;10.128;2024-01-07T00:41:26;0.80;99.90
15707;DHT22;7953;54.302;10.128;2024-01-07T00:43:53;0.80;99.90
15707;DHT22;7953;54.302;10.128;2024-01-07T00:46:20;0.80;99.90
15707;DHT22;7953;54.302;10.128;2024-01-07T00:48:47;0.80;99.90
15707;DHT22;7953;54.302;10.128;2024-01-07T00:51:13;0.80;99.90
15707;DHT22;7953;54.302;10.128;2024-01-07T00:53:40;0.90;99.90
15707;DHT22;7953;54.302;10.128;2024-01-07T00:56:08;0.80;99.90
15707;DHT22;7953;54.302;10.128;2024-01-07T00:58:36;0.80;99.90
15707;DHT22;7953;54.302;10.128;2024-01-07T01:01:03;0.80;99.90
15707;DHT22;7953;54.302;10.128;2024-01-07T01:03:30;0.80;99.90
15707;DHT22;7953;54.302;10.128;2024-01-07T01:05:57;0.80;99.90
15707;DHT22;7953;54.302;10.128;2024-01-07T01:08:23;0.80;99.90
15707;DHT22;7953;54.302;10.128;2024-01-07T01:10:50;0.80;99.90
15707;DHT22;7953;54.302;10.128;2024-01-07T01:13:18;0.80;99.90
15707;DHT22;7953;54.302;10.128;2024-01-07T01:15:45;0.80;99.90
15707;DHT22;7953;54.302;10.128;2024-01-07T01:18:12;0.80;99.90
15707;DHT22;7953;54.302;10.128;2024-01-07T01:20:39;0.80;99.90
15707;DHT22;7953;54.302;10.128;2024-01-07T01:23:06;0.80;99.90
15707;DHT22;7953;54.302;10.128;2024-01-07T01:25:32;0.80;99.90
15707;DHT22;7953;54.302;10.128;2024-01-07T01:28:01;0.80;99.90
15707;DHT22;7953;54.302;10.128;2024-01-07T01:30:29;0.80;99.90
15707;DHT22;7953;54.302;10.128;2024-01-07T01:32:57;0.80;99.90
15707;DHT22;7953;54.302;10.128;2024-01-07T01:35:24;0.80;99.90
15707;DHT22;7953;54.302;10.128;2024-01-07T01:37:51;0.80;99.90
15707;DHT22;7953;54.302;10.128;2024-01-07T01:40:19;0.80;99.90
15707;DHT22;7953;54.302;10.128;2024-01-07T01:42:46;0.70;99.90
15707;DHT22;7953;54.302;10.128;2024-01-07T01:45:14;0.80;99.90
15707;DHT22;7953;54.302;10.128;2024-01-07T01:47:42;0.80;99.90
15707;DHT22;7953;54.302;10.128;2024-01-07T01:50:10;0.80;99.90
15707;DHT22;7953;54.302;10.128;2024-01-07T01:52:37;0.80;99.90
15707;DHT22;7953;54.302;10.128;2024-01-07T01:55:04;0.80;99.90
15707;DHT22;7953;54.302;10.128;2024-01-07T01:57:33;0.80;99.90
15707;DHT22;7953;54.302;10.128;2024-01-07T02:00:01;0.70;99.90
15707;DHT22;7953;54.302;10.128;2024-01-07T02:02:30;0.70;99.90
15707;DHT22;7953;54.302;10.128;2024-01-07T02:05:01;0.70;99.90
15707;DHT22;7953;54.302;10.128;2024-01-07T02:07:30;0.80;99.90
15707;DHT22;7953;54.302;10.128;2024-01-07T02:09:57;0.70;99.90
15707;DHT22;7953;54.302;10.128;2024-01-07T02:12:24;0.70;99.90
15707;DHT22;7953;54.302;10.128;2024-01-07T02:14:50;0.70;99.90
15707;DHT22;7953;54.302;10.128;2024-01-07T02:17:18;0.70;99.90
15707;DHT22;7953;54.302;10.128;2024-01-07T02:19:45;0.70;99.90
15707;DHT22;7953;54.302;10.128;2024-01-07T02:22:13;0.70;99.90
15707;DHT22;7953;54.302;10.128;2024-01-07T02:24:41;0.70;99.90
15707;DHT22;7953;54.302;10.128;2024-01-07T02:27:08;0.60;99.90
15707;DHT22;7953;54.302;10.128;2024-01-07T02:29:35;0.60;99.90
15707;DHT22;7953;54.302;10.128;2024-01-07T02:32:02;0.70;99.90
15707;DHT22;7953;54.302;10.128;2024-01-07T02:34:29;0.60;99.90
15707;DHT22;7953;54.302;10.128;2024-01-07T02:36:56;0.60;99.90
15707;DHT22;7953;54.302;10.128;2024-01-07T02:39:23;0.50;99.90
15707;DHT22;7953;54.302;10.128;2024-01-07T02:41:51;0.60;99.90
15707;DHT22;7953;54.302;10.128;2024-01-07T02:44:18;0.60;99.90
15707;DHT22;7953;54.302;10.128;2024-01-07T02:46:44;0.60;99.90
15707;DHT22;7953;54.302;10.128;2024-01-07T02:49:11;0.60;99.90
15707;DHT22;7953;54.302;10.128;2024-01-07T02:51:38;0.60;99.90
15707;DHT22;7953;54.302;10.128;2024-01-07T02:54:05;0.60;99.90
15707;DHT22;7953;54.302;10.128;2024-01-07T02:56:32;0.60;99.90
15707;DHT22;7953;54.302;10.128;2024-01-07T02:59:00;0.60;99.90
15707;DHT22;7953;54.302;10.128;2024-01-07T03:01:27;0.60;99.90
15707;DHT22;7953;54.302;10.128;2024-01-07T03:03:54;0.60;99.90
15707;DHT22;7953;54.302;10.128;2024-01-07T03:06:21;0.60;99.90
15707;DHT22;7953;54.302;10.128;2024-01-07T03:08:48;0.60;99.90
15707;DHT22;7953;54.302;10.128;2024-01-07T03:11:15;0.60;99.90
15707;DHT22;7953;54.302;10.128;2024-01-07T03:13:41;0.60;99.90
15707;DHT22;7953;54.302;10.128;2024-01-07T03:16:19;0.60;99.90
15707;DHT22;7953;54.302;10.128;2024-01-07T03:18:46;0.60;99.90
15707;DHT22;7953;54.302;10.128;2024-01-07T03:21:17;0.60;99.90
15707;DHT22;7953;54.302;10.128;2024-01-07T03:23:44;0.60;99.90
15707;DHT22;7953;54.302;10.128;2024-01-07T03:26:11;0.50;99.90
15707;DHT22;7953;54.302;10.128;2024-01-07T03:28:38;0.50;99.90
15707;DHT22;7953;54.302;10.128;2024-01-07T03:31:09;0.50;99.90
15707;DHT22;7953;54.302;10.128;2024-01-07T03:33:37;0.50;99.90
15707;DHT22;7953;54.302;10.128;2024-01-07T03:36:07;0.50;99.90
15707;DHT22;7953;54.302;10.128;2024-01-07T03:38:35;0.40;99.90
15707;DHT22;7953;54.302;10.128;2024-01-07T03:41:02;0.40;99.90
15707;DHT22;7953;54.302;10.128;2024-01-07T03:43:29;0.40;99.90
15707;DHT22;7953;54.302;10.128;2024-01-07T03:45:56;0.40;99.90
15707;DHT22;7953;54.302;10.128;2024-01-07T03:48:24;0.30;99.90
15707;DHT22;7953;54.302;10.128;2024-01-07T03:50:51;0.30;99.90
15707;DHT22;7953;54.302;10.128;2024-01-07T03:53:18;0.30;99.90
15707;DHT22;7953;54.302;10.128;2024-01-07T03:55:45;0.30;99.90
15707;DHT22;7953;54.302;10.128;2024-01-07T03:58:12;0.20;99.90
15707;DHT22;7953;54.302;10.128;2024-01-07T04:00:39;0.10;99.90
15707;DHT22;7953;54.302;10.128;2024-01-07T04:03:05;0.10;99.90
15707;DHT22;7953;54.302;10.128;2024-01-07T04:05:34;0.10;99.90
15707;DHT22;7953;54.302;10.128;2024-01-07T04:08:00;0.00;99.90
15707;DHT22;7953;54.302;10.128;2024-01-07T04:10:27;0.00;99.90
15707;DHT22;7953;54.302;10.128;2024-01-07T04:12:54;0.00;99.90
15707;DHT22;7953;54.302;10.128;2024-01-07T04:15:21;0.00;99.90
15707;DHT22;7953;54.302;10.128;2024-01-07T04:17:48;0.00;99.90
15707;DHT22;7953;54.302;10.128;2024-01-07T04:20:15;0.00;99.90
15707;DHT22;7953;54.302;10.128;2024-01-07T04:22:43;-0.10;99.90
15707;DHT22;7953;54.302;10.128;2024-01-07T04:25:10;0.00;99.90
15707;DHT22;7953;54.302;10.128;2024-01-07T04:27:37;0.00;99.90
15707;DHT22;7953;54.302;10.128;2024-01-07T04:30:05;0.00;99.90
15707;DHT22;7953;54.302;10.128;2024-01-07T04:32:32;0.00;99.90
15707;DHT22;7953;54.302;10.128;2024-01-07T04:34:59;0.10;99.90
15707;DHT22;7953;54.302;10.128;2024-01-07T04:37:26;0.00;99.90
15707;DHT22;7953;54.302;10.128;2024-01-07T04:39:54;0.00;99.90
15707;DHT22;7953;54.302;10.128;2024-01-07T04:42:21;0.10;99.90
15707;DHT22;7953;54.302;10.128;2024-01-07T04:44:48;0.10;99.90
15707;DHT22;7953;54.302;10.128;2024-01-07T04:47:26;0.10;99.90
15707;DHT22;7953;54.302;10.128;2024-01-07T04:49:53;0.10;99.90
15707;DHT22;7953;54.302;10.128;2024-01-07T04:52:21;0.10;99.90
15707;DHT22;7953;54.302;10.128;2024-01-07T04:54:48;0.10;99.90
15707;DHT22;7953;54.302;10.128;2024-01-07T04:57:16;0.10;99.90
15707;DHT22;7953;54.302;10.128;2024-01-07T04:59:43;0.10;99.90
15707;DHT22;7953;54.302;10.128;2024-01-07T05:02:10;0.10;99.90
15707;DHT22;7953;54.302;10.128;2024-01-07T05:04:37;0.10;99.90
15707;DHT22;7953;54.302;10.128;2024-01-07T05:07:04;0.10;99.90
15707;DHT22;7953;54.302;10.128;2024-01-07T05:09:32;0.10;99.90
15707;DHT22;7953;54.302;10.128;2024-01-07T05:11:59;0.10;99.90
15707;DHT22;7953;54.302;10.128;2024-01-07T05:14:27;0.10;99.90
15707;DHT22;7953;54.302;10.128;2024-01-07T05:16:54;0.00;99.90
15707;DHT22;7953;54.302;10.128;2024-01-07T05:19:21;0.00;99.90
15707;DHT22;7953;54.302;10.128;2024-01-07T05:21:48;0.00;99.90
15707;DHT22;7953;54.302;10.128;2024-01-07T05:24:15;-0.10;99.90
15707;DHT22;7953;54.302;10.128;2024-01-07T05:26:43;-0.10;99.90
15707;DHT22;7953;54.302;10.128;2024-01-07T05:29:10;-0.10;99.90
15707;DHT22;7953;54.302;10.128;2024-01-07T05:31:39;-0.20;99.90
15707;DHT22;7953;54.302;10.128;2024-01-07T05:34:06;-0.20;99.90
15707;DHT22;7953;54.302;10.128;2024-01-07T05:36:32;-0.20;99.90
15707;DHT22;7953;54.302;10.128;2024-01-07T05:38:59;-0.30;99.90
15707;DHT22;7953;54.302;10.128;2024-01-07T05:41:57;-0.30;99.90
15707;DHT22;7953;54.302;10.128;2024-01-07T05:51:09;-0.40;99.90
15707;DHT22;7953;54.302;10.128;2024-01-07T05:53:36;-0.50;99.90
15707;DHT22;7953;54.302;10.128;2024-01-07T05:56:03;-0.50;99.90
15707;DHT22;7953;54.302;10.128;2024-01-07T05:58:30;-0.50;99.90
15707;DHT22;7953;54.302;10.128;2024-01-07T06:00:56;-0.50;99.90
15707;DHT22;7953;54.302;10.128;2024-01-07T06:03:23;-0.50;99.90
15707;DHT22;7953;54.302;10.128;2024-01-07T06:05:50;-0.50;99.90
15707;DHT22;7953;54.302;10.128;2024-01-07T06:08:19;-0.50;99.90
15707;DHT22;7953;54.302;10.128;2024-01-07T06:10:45;-0.60;99.90
15707;DHT22;7953;54.302;10.128;2024-01-07T06:13:12;-0.60;99.90
15707;DHT22;7953;54.302;10.128;2024-01-07T06:15:39;-0.60;99.90
15707;DHT22;7953;54.302;10.128;2024-01-07T06:18:06;-0.60;99.90
15707;DHT22;7953;54.302;10.128;2024-01-07T06:20:33;-0.60;99.90
15707;DHT22;7953;54.302;10.128;2024-01-07T06:22:59;-0.60;99.90
15707;DHT22;7953;54.302;10.128;2024-01-07T06:25:28;-0.70;99.90
15707;DHT22;7953;54.302;10.128;2024-01-07T06:27:55;-0.70;99.90
15707;DHT22;7953;54.302;10.128;2024-01-07T06:30:22;-0.70;99.90
15707;DHT22;7953;54.302;10.128;2024-01-07T06:32:49;-0.80;99.90
15707;DHT22;7953;54.302;10.128;2024-01-07T06:35:17;-0.80;99.90
15707;DHT22;7953;54.302;10.128;2024-01-07T06:37:43;-0.80;99.90
15707;DHT22;7953;54.302;10.128;2024-01-07T06:40:11;-0.70;99.90
15707;DHT22;7953;54.302;10.128;2024-01-07T06:42:39;-0.80;99.90
15707;DHT22;7953;54.302;10.128;2024-01-07T06:45:07;-0.80;99.90
15707;DHT22;7953;54.302;10.128;2024-01-07T06:47:34;-0.80;99.90
15707;DHT22;7953;54.302;10.128;2024-01-07T06:50:01;-0.80;99.90
15707;DHT22;7953;54.302;10.128;2024-01-07T06:52:27;-0.80;99.90
15707;DHT22;7953;54.302;10.128;2024-01-07T06:54:54;-0.80;99.90
15707;DHT22;7953;54.302;10.128;2024-01-07T06:57:21;-0.90;99.90
15707;DHT22;7953;54.302;10.128;2024-01-07T06:59:49;-0.90;99.90
15707;DHT22;7953;54.302;10.128;2024-01-07T07:02:16;-0.90;99.90
15707;DHT22;7953;54.302;10.128;2024-01-07T07:04:43;-0.90;99.90
15707;DHT22;7953;54.302;10.128;2024-01-07T07:07:10;-0.90;99.90
15707;DHT22;7953;54.302;10.128;2024-01-07T07:09:36;-0.90;99.90
15707;DHT22;7953;54.302;10.128;2024-01-07T07:12:04;-0.90;99.90
15707;DHT22;7953;54.302;10.128;2024-01-07T07:14:31;-0.90;99.90
15707;DHT22;7953;54.302;10.128;2024-01-07T07:16:59;-0.90;99.90
15707;DHT22;7953;54.302;10.128;2024-01-07T07:19:26;-1.00;99.90
15707;DHT22;7953;54.302;10.128;2024-01-07T07:21:53;-1.00;99.90
15707;DHT22;7953;54.302;10.128;2024-01-07T07:24:20;-1.10;99.90
15707;DHT22;7953;54.302;10.128;2024-01-07T07:26:47;-1.10;99.90
15707;DHT22;7953;54.302;10.128;2024-01-07T07:29:14;-1.00;99.90
15707;DHT22;7953;54.302;10.128;2024-01-07T07:31:41;-1.00;99.90
15707;DHT22;7953;54.302;10.128;2024-01-07T07:34:10;-1.10;99.90
15707;DHT22;7953;54.302;10.128;2024-01-07T07:36:37;-1.10;99.90
15707;DHT22;7953;54.302;10.128;2024-01-07T07:39:05;-1.10;99.90
15707;DHT22;7953;54.302;10.128;2024-01-07T07:41:32;-1.10;99.90
15707;DHT22;7953;54.302;10.128;2024-01-07T07:43:59;-1.10;99.90
15707;DHT22;7953;54.302;10.128;2024-01-07T07:46:25;-1.10;99.90
15707;DHT22;7953;54.302;10.128;2024-01-07T07:48:52;-1.10;99.90
15707;DHT22;7953;54.302;10.128;2024-01-07T07:51:21;-1.20;99.90
15707;DHT22;7953;54.302;10.128;2024-01-07T07:53:48;-1.20;99.90
15707;DHT22;7953;54.302;10.128;2024-01-07T07:56:14;-1.20;99.90
15707;DHT22;7953;54.302;10.128;2024-01-07T07:58:41;-1.30;99.90
15707;DHT22;7953;54.302;10.128;2024-01-07T08:01:08;-1.30;99.90
15707;DHT22;7953;54.302;10.128;2024-01-07T08:03:35;-1.30;99.90
15707;DHT22;7953;54.302;10.128;2024-01-07T08:06:02;-1.30;99.90
15707;DHT22;7953;54.302;10.128;2024-01-07T08:08:30;-1.30;99.90
15707;DHT22;7953;54.302;10.128;2024-01-07T08:10:57;-1.30;99.90
15707;DHT22;7953;54.302;10.128;2024-01-07T08:13:24;-1.20;99.90
15707;DHT22;7953;54.302;10.128;2024-01-07T08:15:51;-1.20;99.90
15707;DHT22;7953;54.302;10.128;2024-01-07T08:18:18;-1.20;99.90
15707;DHT22;7953;54.302;10.128;2024-01-07T08:20:44;-1.20;99.90
15707;DHT22;7953;54.302;10.128;2024-01-07T08:23:11;-1.10;99.90
15707;DHT22;7953;54.302;10.128;2024-01-07T08:25:39;-1.10;99.90
15707;DHT22;7953;54.302;10.128;2024-01-07T08:28:06;-1.10;99.90
15707;DHT22;7953;54.302;10.128;2024-01-07T08:30:33;-1.10;99.90
15707;DHT22;7953;54.302;10.128;2024-01-07T08:33:00;-1.10;99.90
15707;DHT22;7953;54.302;10.128;2024-01-07T08:35:27;-1.00;99.90
15707;DHT22;7953;54.302;10.128;2024-01-07T08:37:54;-1.00;99.90
15707;DHT22;7953;54.302;10.128;2024-01-07T08:40:20;-1.00;99.90
15707;DHT22;7953;54.302;10.128;2024-01-07T08:42:49;-1.00;99.90
15707;DHT22;7953;54.302;10.128;2024-01-07T08:45:16;-1.00;99.90
15707;DHT22;7953;54.302;10.128;2024-01-07T08:47:42;-1.00;99.90
15707;DHT22;7953;54.302;10.128;2024-01-07T08:50:09;-0.90;99.90
15707;DHT22;7953;54.302;10.128;2024-01-07T08:52:36;-1.00;99.90
15707;DHT22;7953;54.302;10.128;2024-01-07T08:55:03;-1.00;99.90
15707;DHT22;7953;54.302;10.128;2024-01-07T08:57:31;-1.00;99.90
15707;DHT22;7953;54.302;10.128;2024-01-07T09:00:00;-1.00;99.90
15707;DHT22;7953;54.302;10.128;2024-01-07T09:02:27;-1.00;99.90
15707;DHT22;7953;54.302;10.128;2024-01-07T09:04:54;-0.80;99.90
15707;DHT22;7953;54.302;10.128;2024-01-07T09:07:20;-0.40;99.90
15707;DHT22;7953;54.302;10.128;2024-01-07T09:09:47;-0.20;99.90
15707;DHT22;7953;54.302;10.128;2024-01-07T09:12:14;0.50;99.90
15707;DHT22;7953;54.302;10.128;2024-01-07T09:14:41;1.70;99.90
15707;DHT22;7953;54.302;10.128;2024-01-07T09:17:09;3.10;99.90
15707;DHT22;7953;54.302;10.128;2024-01-07T09:19:36;4.40;99.90
15707;DHT22;7953;54.302;10.128;2024-01-07T09:22:04;5.50;99.90
15707;DHT22;7953;54.302;10.128;2024-01-07T09:24:31;6.20;99.90
15707;DHT22;7953;54.302;10.128;2024-01-07T09:26:58;6.40;99.90
15707;DHT22;7953;54.302;10.128;2024-01-07T09:29:25;5.90;99.90
15707;DHT22;7953;54.302;10.128;2024-01-07T09:31:52;5.30;99.90
15707;DHT22;7953;54.302;10.128;2024-01-07T09:34:21;4.70;99.90
15707;DHT22;7953;54.302;10.128;2024-01-07T09:36:47;4.20;99.90
15707;DHT22;7953;54.302;10.128;2024-01-07T09:39:14;3.70;99.90
15707;DHT22;7953;54.302;10.128;2024-01-07T09:41:41;3.50;99.90
15707;DHT22;7953;54.302;10.128;2024-01-07T09:44:08;3.80;99.90
15707;DHT22;7953;54.302;10.128;2024-01-07T09:46:37;4.30;99.90
15707;DHT22;7953;54.302;10.128;2024-01-07T09:49:05;5.20;99.90
15707;DHT22;7953;54.302;10.128;2024-01-07T09:51:35;5.60;99.90
15707;DHT22;7953;54.302;10.128;2024-01-07T09:54:03;6.00;99.90
15707;DHT22;7953;54.302;10.128;2024-01-07T09:56:36;6.00;99.90
15707;DHT22;7953;54.302;10.128;2024-01-07T09:59:05;5.60;99.90
15707;DHT22;7953;54.302;10.128;2024-01-07T10:01:33;4.90;99.90
15707;DHT22;7953;54.302;10.128;2024-01-07T10:04:01;4.30;99.90
15707;DHT22;7953;54.302;10.128;2024-01-07T10:06:28;4.00;99.90
15707;DHT22;7953;54.302;10.128;2024-01-07T10:08:56;3.70;99.90
15707;DHT22;7953;54.302;10.128;2024-01-07T10:11:23;3.70;99.90
15707;DHT22;7953;54.302;10.128;2024-01-07T10:13:49;3.80;99.90
15707;DHT22;7953;54.302;10.128;2024-01-07T10:16:17;3.70;99.90
15707;DHT22;7953;54.302;10.128;2024-01-07T10:18:44;3.80;99.90
15707;DHT22;7953;54.302;10.128;2024-01-07T10:21:10;3.80;99.90
15707;DHT22;7953;54.302;10.128;2024-01-07T10:23:37;3.80;99.90
15707;DHT22;7953;54.302;10.128;2024-01-07T10:26:05;3.40;99.90
15707;DHT22;7953;54.302;10.128;2024-01-07T10:28:32;3.10;99.90
15707;DHT22;7953;54.302;10.128;2024-01-07T10:30:59;2.90;99.90
15707;DHT22;7953;54.302;10.128;2024-01-07T10:33:30;2.90;99.90
15707;DHT22;7953;54.302;10.128;2024-01-07T10:36:02;2.80;99.90
15707;DHT22;7953;54.302;10.128;2024-01-07T10:38:31;2.40;99.90
15707;DHT22;7953;54.302;10.128;2024-01-07T10:40:59;2.20;99.90
15707;DHT22;7953;54.302;10.128;2024-01-07T10:43:29;1.80;99.90
15707;DHT22;7953;54.302;10.128;2024-01-07T10:46:00;1.50;99.90
15707;DHT22;7953;54.302;10.128;2024-01-07T10:48:30;1.20;99.90
15707;DHT22;7953;54.302;10.128;2024-01-07T10:51:00;1.00;99.90
15707;DHT22;7953;54.302;10.128;2024-01-07T10:53:34;0.80;99.90
15707;DHT22;7953;54.302;10.128;2024-01-07T10:56:03;0.60;99.90
15707;DHT22;7953;54.302;10.128;2024-01-07T10:58:33;0.60;99.90
15707;DHT22;7953;54.302;10.128;2024-01-07T11:01:00;0.40;99.90
15707;DHT22;7953;54.302;10.128;2024-01-07T11:03:43;0.30;99.90
15707;DHT22;7953;54.302;10.128;2024-01-07T11:06:20;0.20;99.90
15707;DHT22;7953;54.302;10.128;2024-01-07T11:08:55;0.10;99.90
15707;DHT22;7953;54.302;10.128;2024-01-07T11:11:26;0.00;99.90
15707;DHT22;7953;54.302;10.128;2024-01-07T11:13:55;-0.10;99.90
15707;DHT22;7953;54.302;10.128;2024-01-07T11:16:43;-0.30;99.90
15707;DHT22;7953;54.302;10.128;2024-01-07T11:19:13;-0.30;99.90
15707;DHT22;7953;54.302;10.128;2024-01-07T11:21:40;-0.40;99.90
15707;DHT22;7953;54.302;10.128;2024-01-07T11:24:07;-0.40;99.90
15707;DHT22;7953;54.302;10.128;2024-01-07T11:26:34;-0.50;99.90
15707;DHT22;7953;54.302;10.128;2024-01-07T11:29:02;-0.50;99.90
15707;DHT22;7953;54.302;10.128;2024-01-07T11:31:43;-0.50;99.90
15707;DHT22;7953;54.302;10.128;2024-01-07T11:34:38;-0.60;99.90
15707;DHT22;7953;54.302;10.128;2024-01-07T11:37:09;-0.50;99.90
15707;DHT22;7953;54.302;10.128;2024-01-07T11:39:36;-0.60;99.90
15707;DHT22;7953;54.302;10.128;2024-01-07T11:42:04;-0.60;99.90
15707;DHT22;7953;54.302;10.128;2024-01-07T11:44:34;-0.60;99.90
15707;DHT22;7953;54.302;10.128;2024-01-07T11:47:03;-0.60;99.90
15707;DHT22;7953;54.302;10.128;2024-01-07T11:49:30;-0.60;99.90
15707;DHT22;7953;54.302;10.128;2024-01-07T11:51:57;-0.60;99.90
15707;DHT22;7953;54.302;10.128;2024-01-07T11:54:24;-0.70;99.90
15707;DHT22;7953;54.302;10.128;2024-01-07T11:56:51;-0.80;99.90
15707;DHT22;7953;54.302;10.128;2024-01-07T11:59:18;-0.70;99.90
15707;DHT22;7953;54.302;10.128;2024-01-07T12:01:46;-0.70;99.90
15707;DHT22;7953;54.302;10.128;2024-01-07T12:04:13;-0.80;99.90
15707;DHT22;7953;54.302;10.128;2024-01-07T12:06:40;-0.80;99.90
15707;DHT22;7953;54.302;10.128;2024-01-07T12:09:07;-0.80;99.90
15707;DHT22;7953;54.302;10.128;2024-01-07T12:11:34;-0.80;99.90
15707;DHT22;7953;54.302;10.128;2024-01-07T12:14:02;-0.70;99.90
15707;DHT22;7953;54.302;10.128;2024-01-07T12:16:29;-0.80;99.90
15707;DHT22;7953;54.302;10.128;2024-01-07T12:18:58;-0.80;99.90
15707;DHT22;7953;54.302;10.128;2024-01-07T12:21:25;-0.80;99.90
15707;DHT22;7953;54.302;10.128;2024-01-07T12:23:55;-0.90;99.90
15707;DHT22;7953;54.302;10.128;2024-01-07T12:26:26;-0.90;99.90
15707;DHT22;7953;54.302;10.128;2024-01-07T12:28:53;-1.00;99.90
15707;DHT22;7953;54.302;10.128;2024-01-07T12:31:21;-1.00;99.90
15707;DHT22;7953;54.302;10.128;2024-01-07T12:33:48;-1.10;99.90
15707;DHT22;7953;54.302;10.128;2024-01-07T12:36:16;-1.00;99.90
15707;DHT22;7953;54.302;10.128;2024-01-07T12:38:46;-1.00;99.90
15707;DHT22;7953;54.302;10.128;2024-01-07T12:41:13;-1.10;99.90
15707;DHT22;7953;54.302;10.128;2024-01-07T12:43:40;-1.00;99.90
15707;DHT22;7953;54.302;10.128;2024-01-07T12:46:07;-1.00;99.90
15707;DHT22;7953;54.302;10.128;2024-01-07T12:48:34;-1.00;99.90
15707;DHT22;7953;54.302;10.128;2024-01-07T12:51:01;-0.90;99.90
15707;DHT22;7953;54.302;10.128;2024-01-07T12:53:30;-0.90;99.90
15707;DHT22;7953;54.302;10.128;2024-01-07T12:55:56;-0.80;99.90
15707;DHT22;7953;54.302;10.128;2024-01-07T12:58:23;-0.80;99.90
15707;DHT22;7953;54.302;10.128;2024-01-07T13:00:50;-0.80;99.90
15707;DHT22;7953;54.302;10.128;2024-01-07T13:03:17;-0.90;99.90
15707;DHT22;7953;54.302;10.128;2024-01-07T13:05:45;-0.90;99.90
15707;DHT22;7953;54.302;10.128;2024-01-07T13:08:14;-0.80;99.90
15707;DHT22;7953;54.302;10.128;2024-01-07T13:10:42;-0.80;99.90
15707;DHT22;7953;54.302;10.128;2024-01-07T13:13:09;-0.80;99.90
15707;DHT22;7953;54.302;10.128;2024-01-07T13:15:38;-0.80;99.90
15707;DHT22;7953;54.302;10.128;2024-01-07T13:18:06;-0.80;99.90
15707;DHT22;7953;54.302;10.128;2024-01-07T13:20:33;-0.80;99.90
15707;DHT22;7953;54.302;10.128;2024-01-07T13:23:01;-0.90;99.90
15707;DHT22;7953;54.302;10.128;2024-01-07T13:25:29;-0.80;99.90
15707;DHT22;7953;54.302;10.128;2024-01-07T13:27:58;-0.80;99.90
15707;DHT22;7953;54.302;10.128;2024-01-07T13:30:25;-0.80;99.90
15707;DHT22;7953;54.302;10.128;2024-01-07T13:32:50;-0.80;99.90
15707;DHT22;7953;54.302;10.128;2024-01-07T13:35:22;-0.80;99.90
15707;DHT22;7953;54.302;10.128;2024-01-07T13:37:49;-0.80;99.90
15707;DHT22;7953;54.302;10.128;2024-01-07T13:40:18;-0.80;99.90
15707;DHT22;7953;54.302;10.128;2024-01-07T13:42:44;-0.80;99.90
15707;DHT22;7953;54.302;10.128;2024-01-07T13:45:15;-0.80;99.90
15707;DHT22;7953;54.302;10.128;2024-01-07T13:47:42;-0.80;99.90
15707;DHT22;7953;54.302;10.128;2024-01-07T13:50:09;-0.80;99.90
15707;DHT22;7953;54.302;10.128;2024-01-07T13:52:36;-0.80;99.90
15707;DHT22;7953;54.302;10.128;2024-01-07T13:55:03;-0.80;99.90
15707;DHT22;7953;54.302;10.128;2024-01-07T13:57:30;-0.80;99.90
15707;DHT22;7953;54.302;10.128;2024-01-07T13:59:57;-0.90;99.90
15707;DHT22;7953;54.302;10.128;2024-01-07T14:02:25;-0.90;99.90
15707;DHT22;7953;54.302;10.128;2024-01-07T14:04:52;-0.90;99.90
15707;DHT22;7953;54.302;10.128;2024-01-07T14:07:21;-0.90;99.90
15707;DHT22;7953;54.302;10.128;2024-01-07T14:09:47;-0.90;99.90
15707;DHT22;7953;54.302;10.128;2024-01-07T14:12:14;-0.90;99.90
15707;DHT22;7953;54.302;10.128;2024-01-07T14:14:41;-0.90;99.90
15707;DHT22;7953;54.302;10.128;2024-01-07T14:17:08;-0.90;99.90
15707;DHT22;7953;54.302;10.128;2024-01-07T14:19:36;-0.90;99.90
15707;DHT22;7953;54.302;10.128;2024-01-07T14:22:03;-0.90;99.90
15707;DHT22;7953;54.302;10.128;2024-01-07T14:24:30;-1.00;99.90
15707;DHT22;7953;54.302;10.128;2024-01-07T14:26:57;-1.00;99.90
15707;DHT22;7953;54.302;10.128;2024-01-07T14:29:23;-0.90;99.90
15707;DHT22;7953;54.302;10.128;2024-01-07T14:31:50;-0.90;99.90
15707;DHT22;7953;54.302;10.128;2024-01-07T14:34:17;-0.90;99.90
15707;DHT22;7953;54.302;10.128;2024-01-07T14:36:45;-0.90;99.90
15707;DHT22;7953;54.302;10.128;2024-01-07T14:39:12;-0.90;99.90
15707;DHT22;7953;54.302;10.128;2024-01-07T14:41:40;-1.00;99.90
15707;DHT22;7953;54.302;10.128;2024-01-07T14:44:07;-1.00;99.90
15707;DHT22;7953;54.302;10.128;2024-01-07T14:46:34;-1.00;99.90
15707;DHT22;7953;54.302;10.128;2024-01-07T14:49:01;-1.00;99.90
15707;DHT22;7953;54.302;10.128;2024-01-07T14:51:27;-1.00;99.90
15707;DHT22;7953;54.302;10.128;2024-01-07T14:53:57;-1.00;99.90
15707;DHT22;7953;54.302;10.128;2024-01-07T14:56:25;-1.10;99.90
15707;DHT22;7953;54.302;10.128;2024-01-07T14:58:52;-1.10;99.90
15707;DHT22;7953;54.302;10.128;2024-01-07T15:01:19;-1.10;99.90
15707;DHT22;7953;54.302;10.128;2024-01-07T15:03:46;-1.10;99.90
15707;DHT22;7953;54.302;10.128;2024-01-07T15:06:13;-1.20;99.90
15707;DHT22;7953;54.302;10.128;2024-01-07T15:08:40;-1.20;99.90
15707;DHT22;7953;54.302;10.128;2024-01-07T15:11:09;-1.20;99.90
15707;DHT22;7953;54.302;10.128;2024-01-07T15:13:36;-1.20;99.90
15707;DHT22;7953;54.302;10.128;2024-01-07T15:16:05;-1.20;99.90
15707;DHT22;7953;54.302;10.128;2024-01-07T15:18:32;-1.20;99.90
15707;DHT22;7953;54.302;10.128;2024-01-07T15:20:59;-1.10;99.90
15707;DHT22;7953;54.302;10.128;2024-01-07T15:23:26;-1.10;99.90
15707;DHT22;7953;54.302;10.128;2024-01-07T15:25:53;-1.20;99.90
15707;DHT22;7953;54.302;10.128;2024-01-07T15:28:21;-1.20;99.90
15707;DHT22;7953;54.302;10.128;2024-01-07T15:30:48;-1.20;99.90
15707;DHT22;7953;54.302;10.128;2024-01-07T15:33:15;-1.20;99.90
15707;DHT22;7953;54.302;10.128;2024-01-07T15:35:42;-1.20;99.90
15707;DHT22;7953;54.302;10.128;2024-01-07T15:38:09;-1.20;99.90
15707;DHT22;7953;54.302;10.128;2024-01-07T15:40:36;-1.20;99.90
15707;DHT22;7953;54.302;10.128;2024-01-07T15:43:03;-1.20;99.90
15707;DHT22;7953;54.302;10.128;2024-01-07T15:45:31;-1.30;99.90
15707;DHT22;7953;54.302;10.128;2024-01-07T15:47:58;-1.30;99.90